createdAt,value
2022-10-19T00:01:23.025Z,5.63
2022-10-19T00:03:55.576Z,5.23
2022-10-19T00:06:26.399Z,5.20
2022-10-19T00:09:07.817Z,14.20
2022-10-19T00:11:39.374Z,6.47
2022-10-19T00:14:08.565Z,10.23
2022-10-19T00:16:38.761Z,55.40
2022-10-19T00:19:12.769Z,44.77
2022-10-19T00:21:40.891Z,20.47
2022-10-19T00:24:09.673Z,16.67
2022-10-19T00:26:38.131Z,11.30
2022-10-19T00:29:06.943Z,6.10
2022-10-19T00:31:35.129Z,28.20
2022-10-19T00:34:02.686Z,34.77
2022-10-19T00:36:37.484Z,31.40
2022-10-19T00:39:08.509Z,27.63
2022-10-19T00:41:37.785Z,26.73
2022-10-19T00:44:30.465Z,24.23
2022-10-19T00:47:05.475Z,17.67
2022-10-19T00:49:43.938Z,14.53
2022-10-19T00:52:18.681Z,12.23
2022-10-19T00:54:48.357Z,11.93
2022-10-19T00:57:16.367Z,13.37
2022-10-19T00:59:46.873Z,16.40
2022-10-19T01:02:14.850Z,18.60
2022-10-19T01:04:49.072Z,19.03
2022-10-19T01:07:17.512Z,13.37
2022-10-19T01:09:45.035Z,9.83
2022-10-19T01:12:23.334Z,9.43
2022-10-19T01:15:04.812Z,7.50
2022-10-19T01:18:09.288Z,7.00
2022-10-19T01:21:10.861Z,7.73
2022-10-19T01:23:55.729Z,7.13
2022-10-19T01:26:23.155Z,6.70
2022-10-19T01:29:58.353Z,8.33
2022-10-19T01:33:00.137Z,9.53
2022-10-19T01:36:00.615Z,7.77
2022-10-19T01:39:00.401Z,6.33
2022-10-19T01:42:16.879Z,5.63
2022-10-19T01:45:02.275Z,6.03
2022-10-19T01:47:51.702Z,6.23
2022-10-19T01:50:35.126Z,5.13
2022-10-19T01:53:06.196Z,5.13
2022-10-19T01:55:35.067Z,5.37
2022-10-19T01:58:09.543Z,4.50
2022-10-19T02:00:42.892Z,4.93
2022-10-19T02:03:12.643Z,4.47
2022-10-19T02:05:42.476Z,5.10
2022-10-19T02:08:29.289Z,6.13
2022-10-19T02:10:59.102Z,6.30
2022-10-19T02:13:29.245Z,6.87
2022-10-19T02:16:01.412Z,8.23
2022-10-19T02:18:37.949Z,8.97
2022-10-19T02:21:06.974Z,8.67
2022-10-19T02:23:34.851Z,8.40
2022-10-19T02:26:02.843Z,5.97
2022-10-19T02:28:32.029Z,5.43
2022-10-19T02:31:00.795Z,5.40
2022-10-19T02:33:30.025Z,6.13
2022-10-19T02:36:00.993Z,5.33
2022-10-19T02:38:28.948Z,5.00
2022-10-19T02:41:16.216Z,4.67
2022-10-19T02:43:49.416Z,4.80
2022-10-19T02:46:35.778Z,4.57
2022-10-19T02:49:06.774Z,4.63
2022-10-19T02:51:56.056Z,4.63
2022-10-19T02:54:25.032Z,5.10
2022-10-19T02:56:52.775Z,4.10
2022-10-19T02:59:20.328Z,4.13
2022-10-19T03:01:47.946Z,4.47
2022-10-19T03:04:15.839Z,4.67
2022-10-19T03:06:44.020Z,3.80
2022-10-19T03:09:11.534Z,4.33
2022-10-19T03:11:39.032Z,4.80
2022-10-19T03:14:06.476Z,5.47
2022-10-19T03:16:34.037Z,5.53
2022-10-19T03:19:01.450Z,4.90
2022-10-19T03:21:28.902Z,5.03
2022-10-19T03:23:56.468Z,4.70
2022-10-19T03:26:23.910Z,4.83
2022-10-19T03:28:51.465Z,4.80
2022-10-19T03:31:19.192Z,4.57
2022-10-19T03:33:46.649Z,4.33
2022-10-19T03:36:29.788Z,5.07
2022-10-19T03:39:01.309Z,4.90
2022-10-19T03:41:32.938Z,4.30
2022-10-19T03:46:28.268Z,34.47
2022-10-19T03:48:56.230Z,58.40
2022-10-19T03:51:27.082Z,48.27
2022-10-19T03:54:00.721Z,43.90
2022-10-19T03:56:30.429Z,38.43
2022-10-19T03:59:01.305Z,37.40
2022-10-19T04:01:41.156Z,39.50
2022-10-19T04:04:14.758Z,46.73
2022-10-19T04:06:46.351Z,52.90
2022-10-19T04:09:17.655Z,46.00
2022-10-19T04:11:45.531Z,42.90
2022-10-19T04:14:26.922Z,31.83
2022-10-19T04:17:04.189Z,27.33
2022-10-19T04:19:32.230Z,30.17
2022-10-19T04:22:00.039Z,30.33
2022-10-19T04:24:27.874Z,27.00
2022-10-19T04:26:59.241Z,27.40
2022-10-19T04:29:30.010Z,33.23
2022-10-19T04:31:58.948Z,39.90
2022-10-19T04:34:26.469Z,37.53
2022-10-19T04:36:54.727Z,26.87
2022-10-19T04:39:25.075Z,25.67
2022-10-19T04:41:52.513Z,23.70
2022-10-19T04:44:20.944Z,17.17
2022-10-19T04:46:48.461Z,15.10
2022-10-19T04:49:18.023Z,10.03
2022-10-19T04:51:47.868Z,8.97
2022-10-19T04:54:15.317Z,7.43
2022-10-19T04:56:42.764Z,7.20
2022-10-19T04:59:10.754Z,7.60
2022-10-19T05:01:40.418Z,8.87
2022-10-19T05:04:11.534Z,9.27
2022-10-19T05:06:39.281Z,16.93
2022-10-19T05:09:07.372Z,15.03
2022-10-19T05:11:35.118Z,14.17
2022-10-19T05:14:02.543Z,19.10
2022-10-19T05:16:30.041Z,11.30
2022-10-19T05:18:58.982Z,9.63
2022-10-19T05:21:29.021Z,9.77
2022-10-19T05:23:57.970Z,8.27
2022-10-19T05:26:27.952Z,6.37
2022-10-19T05:29:04.585Z,5.57
2022-10-19T05:31:36.876Z,6.33
2022-10-19T05:34:05.502Z,5.77
2022-10-19T05:36:39.187Z,9.33
2022-10-19T05:39:14.293Z,6.23
2022-10-19T05:41:44.892Z,5.53
2022-10-19T05:44:30.561Z,7.10
2022-10-19T05:46:58.017Z,9.17
2022-10-19T05:49:25.556Z,6.10
2022-10-19T05:51:53.087Z,6.43
2022-10-19T05:54:23.738Z,5.50
2022-10-19T05:56:53.852Z,5.47
2022-10-19T05:59:24.459Z,4.70
2022-10-19T06:01:52.050Z,5.30
2022-10-19T06:04:19.549Z,6.03
2022-10-19T06:06:47.229Z,5.90
2022-10-19T06:09:15.368Z,6.10
2022-10-19T06:11:43.728Z,6.53
2022-10-19T06:14:16.087Z,6.33
2022-10-19T06:16:45.924Z,5.50
2022-10-19T06:19:13.903Z,5.20
2022-10-19T06:21:43.409Z,4.40
2022-10-19T06:24:13.399Z,4.97
2022-10-19T06:26:41.070Z,4.53
2022-10-19T06:29:09.723Z,4.77
2022-10-19T06:31:38.412Z,5.07
2022-10-19T06:34:06.384Z,4.70
2022-10-19T06:36:34.221Z,5.10
2022-10-19T06:39:02.107Z,4.27
2022-10-19T06:41:31.303Z,5.47
2022-10-19T06:44:12.335Z,5.17
2022-10-19T06:46:39.865Z,4.20
2022-10-19T06:49:07.353Z,4.53
2022-10-19T06:51:34.903Z,4.70
2022-10-19T06:54:02.570Z,4.97
2022-10-19T06:56:32.143Z,5.03
2022-10-19T06:58:59.885Z,5.33
2022-10-19T07:01:28.098Z,5.17
2022-10-19T07:03:55.856Z,5.00
2022-10-19T07:06:28.161Z,4.97
2022-10-19T07:08:55.618Z,4.60
2022-10-19T07:11:23.280Z,4.77
2022-10-19T07:13:52.259Z,3.80
2022-10-19T07:16:21.287Z,4.10
2022-10-19T07:18:52.016Z,4.20
2022-10-19T07:21:23.062Z,3.80
2022-10-19T07:23:50.921Z,4.17
2022-10-19T07:26:29.934Z,5.60
2022-10-19T07:28:58.295Z,5.93
2022-10-19T07:31:27.707Z,6.17
2022-10-19T07:34:04.314Z,5.60
2022-10-19T07:36:37.086Z,3.80
2022-10-19T07:39:08.497Z,3.03
2022-10-19T07:41:36.015Z,3.70
2022-10-19T07:44:07.464Z,3.40
2022-10-19T07:46:38.704Z,3.50
2022-10-19T07:49:12.121Z,4.20
2022-10-19T07:51:41.455Z,3.33
2022-10-19T07:54:09.748Z,3.80
2022-10-19T07:56:38.576Z,4.23
2022-10-19T07:59:06.532Z,4.43
2022-10-19T08:01:41.222Z,3.43
2022-10-19T08:06:56.651Z,3.37
2022-10-19T08:12:15.381Z,3.77
2022-10-19T08:14:43.424Z,3.70
2022-10-19T08:17:17.716Z,3.37
2022-10-19T08:19:47.171Z,4.00
2022-10-19T08:22:14.842Z,4.07
2022-10-19T08:24:42.399Z,4.50
2022-10-19T08:27:14.399Z,4.00
2022-10-19T08:29:41.879Z,3.30
2022-10-19T08:32:10.432Z,3.43
2022-10-19T08:34:37.927Z,3.43
2022-10-19T08:37:14.669Z,3.60
2022-10-19T08:39:53.463Z,3.57
2022-10-19T08:42:43.834Z,3.93
2022-10-19T08:45:37.437Z,3.20
2022-10-19T08:48:27.738Z,3.53
2022-10-19T08:50:56.888Z,3.47
2022-10-19T08:53:43.032Z,3.43
2022-10-19T08:56:49.261Z,3.73
2022-10-19T08:59:35.833Z,3.57
2022-10-19T09:02:19.195Z,3.60
2022-10-19T09:04:55.813Z,3.30
2022-10-19T09:07:46.046Z,3.80
2022-10-19T09:10:19.189Z,3.50
2022-10-19T09:12:58.567Z,4.83
2022-10-19T09:15:35.273Z,3.80
2022-10-19T09:18:03.313Z,3.67
2022-10-19T09:20:39.789Z,3.60
2022-10-19T09:23:32.175Z,3.70
2022-10-19T09:25:59.755Z,4.00
2022-10-19T09:28:45.825Z,3.23
2022-10-19T09:31:42.844Z,3.30
2022-10-19T09:34:35.887Z,3.87
2022-10-19T09:37:04.619Z,3.20
2022-10-19T09:39:32.769Z,2.70
2022-10-19T09:42:05.562Z,2.50
2022-10-19T09:44:33.554Z,2.97
2022-10-19T09:47:25.477Z,3.17
2022-10-19T09:50:26.061Z,3.20
2022-10-19T09:52:57.682Z,2.83
2022-10-19T09:55:39.241Z,3.10
2022-10-19T09:58:20.518Z,2.73
2022-10-19T10:00:57.812Z,3.30
2022-10-19T10:03:39.416Z,2.87
2022-10-19T10:06:14.193Z,3.00
2022-10-19T10:08:58.058Z,2.30
2022-10-19T10:11:38.946Z,2.50
2022-10-19T10:14:28.060Z,2.47
2022-10-19T10:17:03.496Z,3.03
2022-10-19T10:19:33.665Z,2.80
2022-10-19T10:22:01.265Z,2.33
2022-10-19T10:24:34.233Z,2.43
2022-10-19T10:27:05.259Z,2.70
2022-10-19T10:29:37.433Z,3.90
2022-10-19T10:32:40.135Z,2.93
2022-10-19T10:35:31.742Z,2.40
2022-10-19T10:38:35.723Z,2.87
2022-10-19T10:41:18.852Z,2.70
2022-10-19T10:44:06.853Z,2.50
2022-10-19T10:46:41.511Z,3.07
2022-10-19T10:49:23.639Z,3.40
2022-10-19T10:52:15.449Z,2.70
2022-10-19T10:55:10.064Z,2.50
2022-10-19T10:57:44.226Z,3.25
2022-10-19T11:00:22.128Z,2.80
2022-10-19T11:03:14.763Z,2.70
2022-10-19T11:05:53.736Z,2.90
2022-10-19T11:08:48.259Z,2.80
2022-10-19T11:11:21.950Z,2.85
2022-10-19T11:14:25.486Z,2.78
2022-10-19T11:16:56.907Z,2.90
2022-10-19T11:19:36.316Z,2.42
2022-10-19T11:22:35.876Z,3.30
2022-10-19T11:25:23.598Z,4.50
2022-10-19T11:28:05.248Z,2.92
2022-10-19T11:31:06.867Z,9.77
2022-10-19T11:34:08.353Z,4.22
2022-10-19T11:37:00.976Z,2.70
2022-10-19T11:40:05.634Z,2.45
2022-10-19T11:43:42.900Z,4.18
2022-10-19T11:46:35.211Z,2.13
2022-10-19T11:49:38.793Z,2.40
2022-10-19T11:52:17.144Z,3.20
2022-10-19T11:54:50.346Z,4.25
2022-10-19T11:57:24.509Z,3.38
2022-10-19T12:00:15.700Z,2.72
2022-10-19T12:03:37.343Z,2.67
2022-10-19T12:06:30.142Z,2.70
2022-10-19T12:09:35.471Z,2.33
2022-10-19T12:12:33.512Z,2.33
2022-10-19T12:15:35.339Z,2.30
2022-10-19T12:21:11.772Z,2.50
2022-10-19T12:23:43.948Z,2.60
2022-10-19T12:29:00.782Z,2.90
2022-10-19T12:31:30.285Z,2.90
2022-10-19T12:34:20.577Z,2.55
2022-10-19T12:37:10.388Z,2.70
2022-10-19T12:39:46.740Z,2.40
2022-10-19T12:42:26.703Z,2.22
2022-10-19T12:45:38.464Z,2.33
2022-10-19T12:48:24.514Z,2.90
2022-10-19T12:50:56.751Z,2.20
2022-10-19T12:53:36.111Z,2.40
2022-10-19T12:56:16.618Z,2.28
2022-10-19T12:59:01.517Z,2.13
2022-10-19T13:01:34.901Z,4.55
2022-10-19T13:04:15.872Z,2.60
2022-10-19T13:06:56.313Z,2.33
2022-10-19T13:09:39.860Z,2.20
2022-10-19T13:12:19.732Z,2.00
2022-10-19T13:15:01.953Z,2.00
2022-10-19T13:17:41.165Z,2.20
2022-10-19T13:20:14.777Z,2.60
2022-10-19T13:23:13.227Z,2.00
2022-10-19T13:25:42.334Z,2.65
2022-10-19T13:28:10.003Z,2.17
2022-10-19T13:30:37.375Z,2.63
2022-10-19T13:33:29.595Z,2.13
2022-10-19T13:35:59.858Z,1.73
2022-10-19T13:38:52.896Z,2.30
2022-10-19T13:41:46.413Z,2.33
2022-10-19T13:44:15.195Z,2.20
2022-10-19T13:47:20.858Z,1.90
2022-10-19T13:50:03.417Z,2.75
2022-10-19T13:52:42.900Z,2.60
2022-10-19T13:55:28.624Z,2.55
2022-10-19T13:58:51.661Z,2.90
2022-10-19T14:01:27.468Z,2.70
2022-10-19T14:04:35.805Z,2.53
2022-10-19T14:07:21.466Z,2.30
2022-10-19T14:10:25.176Z,2.10
2022-10-19T14:13:02.048Z,2.42
2022-10-19T14:15:33.628Z,2.22
2022-10-19T14:18:03.814Z,2.15
2022-10-19T14:20:38.589Z,2.13
2022-10-19T14:23:28.233Z,1.92
2022-10-19T14:26:17.773Z,2.10
2022-10-19T14:28:55.242Z,2.17
2022-10-19T14:31:34.939Z,2.33
2022-10-19T14:34:08.781Z,2.50
2022-10-19T14:36:49.837Z,2.67
2022-10-19T14:39:43.148Z,2.28
2022-10-19T14:42:11.637Z,2.45
2022-10-19T14:44:44.093Z,1.98
2022-10-19T14:47:24.013Z,2.35
2022-10-19T14:49:52.062Z,4.70
2022-10-19T14:52:32.900Z,4.60
2022-10-19T14:55:12.605Z,4.50
2022-10-19T14:57:46.572Z,3.80
2022-10-19T15:00:21.755Z,3.28
2022-10-19T15:03:02.272Z,3.17
2022-10-19T15:05:40.894Z,3.20
2022-10-19T15:08:18.738Z,4.07
2022-10-19T15:10:48.744Z,3.65
2022-10-19T15:13:43.193Z,3.97
2022-10-19T15:16:31.913Z,3.63
2022-10-19T15:19:11.220Z,3.70
2022-10-19T15:21:41.497Z,3.10
2022-10-19T15:24:26.374Z,3.13
2022-10-19T15:27:06.652Z,3.58
2022-10-19T15:29:36.513Z,3.30
2022-10-19T15:32:26.420Z,3.20
2022-10-19T15:34:53.958Z,3.58
2022-10-19T15:37:23.771Z,8.98
2022-10-19T15:39:53.274Z,5.47
2022-10-19T15:42:40.885Z,4.30
2022-10-19T15:45:31.560Z,4.53
2022-10-19T15:48:13.117Z,3.90
2022-10-19T15:50:48.097Z,16.60
2022-10-19T15:53:19.850Z,8.98
2022-10-19T15:55:48.044Z,8.57
2022-10-19T15:58:16.989Z,7.30
2022-10-19T16:00:46.243Z,5.75
2022-10-19T16:03:14.119Z,5.50
2022-10-19T16:05:42.248Z,5.20
2022-10-19T16:08:12.521Z,6.50
2022-10-19T16:10:41.324Z,7.43
2022-10-19T16:13:10.269Z,7.13
2022-10-19T16:15:37.985Z,6.67
2022-10-19T16:18:05.919Z,6.37
2022-10-19T16:20:34.112Z,6.27
2022-10-19T16:23:01.596Z,5.73
2022-10-19T16:25:29.092Z,6.20
2022-10-19T16:27:56.579Z,9.50
2022-10-19T16:30:24.490Z,11.73
2022-10-19T16:32:52.284Z,13.17
2022-10-19T16:35:19.752Z,15.20
2022-10-19T16:37:48.320Z,15.63
2022-10-19T16:40:20.445Z,17.67
2022-10-19T16:42:48.022Z,16.00
2022-10-19T16:45:15.606Z,14.93
2022-10-19T16:47:43.102Z,15.37
2022-10-19T16:50:12.246Z,14.27
2022-10-19T16:52:40.867Z,13.83
2022-10-19T16:55:08.795Z,13.67
2022-10-19T16:57:38.809Z,10.97
2022-10-19T17:00:10.672Z,11.17
2022-10-19T17:02:41.830Z,9.00
2022-10-19T17:05:11.921Z,8.63
2022-10-19T17:07:39.440Z,9.97
2022-10-19T17:10:07.497Z,11.50
2022-10-19T17:12:35.160Z,12.07
2022-10-19T17:15:37.188Z,11.17
2022-10-19T17:17:50.640Z,8.90
2022-10-19T17:20:18.698Z,8.00
2022-10-19T17:22:49.186Z,7.73
2022-10-19T17:25:20.222Z,18.73
2022-10-19T17:27:53.106Z,18.17
2022-10-19T17:30:21.571Z,16.70
2022-10-19T17:32:50.706Z,17.73
2022-10-19T17:35:18.391Z,23.40
2022-10-19T17:37:49.955Z,25.23
2022-10-19T17:40:21.471Z,21.67
2022-10-19T17:42:49.658Z,19.83
2022-10-19T17:45:18.466Z,19.30
2022-10-19T17:47:45.994Z,18.87
2022-10-19T17:50:13.439Z,28.83
2022-10-19T17:52:41.070Z,40.53
2022-10-19T17:55:13.123Z,31.47
2022-10-19T17:57:41.504Z,28.90
2022-10-19T18:00:10.787Z,29.27
2022-10-19T18:02:48.251Z,30.83
2022-10-19T18:05:17.146Z,33.20
2022-10-19T18:07:45.034Z,26.00
2022-10-19T18:10:14.170Z,23.50
2022-10-19T18:12:45.290Z,20.40
2022-10-19T18:15:35.262Z,19.13
2022-10-19T18:18:08.279Z,15.80
2022-10-19T18:20:41.778Z,17.17
2022-10-19T18:23:11.733Z,14.80
2022-10-19T18:25:53.456Z,11.93
2022-10-19T18:28:27.268Z,11.53
2022-10-19T18:30:54.867Z,12.20
2022-10-19T18:33:23.744Z,10.30
2022-10-19T18:35:51.721Z,9.57
2022-10-19T18:38:23.445Z,8.60
2022-10-19T18:40:55.780Z,8.20
2022-10-19T18:43:28.421Z,8.10
2022-10-19T18:46:01.384Z,7.50
2022-10-19T18:48:34.106Z,8.10
2022-10-19T18:51:06.968Z,7.60
2022-10-19T18:53:38.156Z,7.50
2022-10-19T18:56:12.649Z,7.87
2022-10-19T18:58:43.478Z,7.57
2022-10-19T19:01:26.557Z,7.87
2022-10-19T19:04:04.280Z,5.23
2022-10-19T19:06:36.010Z,6.53
2022-10-19T19:09:08.971Z,6.43
2022-10-19T19:11:40.906Z,7.93
2022-10-19T19:14:22.482Z,8.37
2022-10-19T19:16:50.213Z,5.80
2022-10-19T19:19:20.007Z,5.93
2022-10-19T19:21:49.040Z,7.63
2022-10-19T19:24:22.278Z,7.87
2022-10-19T19:26:53.199Z,6.37
2022-10-19T19:29:22.453Z,5.80
2022-10-19T19:31:51.315Z,6.77
2022-10-19T19:34:19.144Z,8.23
2022-10-19T19:36:48.348Z,10.17
2022-10-19T19:39:20.212Z,8.03
2022-10-19T19:42:01.199Z,7.40
2022-10-19T19:44:37.469Z,6.57
2022-10-19T19:47:07.018Z,4.50
2022-10-19T19:49:40.798Z,4.00
2022-10-19T19:52:12.561Z,3.97
2022-10-19T19:54:41.343Z,3.43
2022-10-19T19:57:10.126Z,3.20
2022-10-19T19:59:39.069Z,3.50
2022-10-19T20:02:06.733Z,4.23
2022-10-19T20:04:34.310Z,3.63
2022-10-19T20:07:02.365Z,3.27
2022-10-19T20:09:30.245Z,3.10
2022-10-19T20:11:57.993Z,3.90
2022-10-19T20:14:27.617Z,3.47
2022-10-19T20:16:55.157Z,3.57
2022-10-19T20:19:22.687Z,3.97
2022-10-19T20:21:50.246Z,3.97
2022-10-19T20:24:17.755Z,4.13
2022-10-19T20:26:45.184Z,4.73
2022-10-19T20:29:13.272Z,4.00
2022-10-19T20:31:41.341Z,4.00
2022-10-19T20:34:13.968Z,4.80
2022-10-19T20:36:42.253Z,4.17
2022-10-19T20:39:10.828Z,5.00
2022-10-19T20:41:38.346Z,5.23
2022-10-19T20:44:06.068Z,5.00
2022-10-19T20:46:33.745Z,6.57
2022-10-19T20:49:02.761Z,5.40
2022-10-19T20:51:36.980Z,4.77
2022-10-19T20:54:07.982Z,7.97
2022-10-19T20:56:38.205Z,9.50
2022-10-19T20:59:18.490Z,8.40
2022-10-19T21:01:49.773Z,9.30
2022-10-19T21:04:17.533Z,26.13
2022-10-19T21:06:50.394Z,29.50
2022-10-19T21:09:21.607Z,31.97
2022-10-19T21:11:52.057Z,24.40
2022-10-19T21:14:28.362Z,27.03
2022-10-19T21:17:00.569Z,18.20
2022-10-19T21:19:30.910Z,15.07
2022-10-19T21:22:02.175Z,7.60
2022-10-19T21:24:36.051Z,5.33
2022-10-19T21:27:07.495Z,4.73
2022-10-19T21:29:35.936Z,3.90
2022-10-19T21:32:04.015Z,4.10
2022-10-19T21:34:32.442Z,3.80
2022-10-19T21:37:00.326Z,4.40
2022-10-19T21:39:29.181Z,4.67
2022-10-19T21:41:57.111Z,5.57
2022-10-19T21:44:24.679Z,5.63
2022-10-19T21:46:52.216Z,5.53
2022-10-19T21:49:19.844Z,5.50
2022-10-19T21:51:51.759Z,6.50
2022-10-19T21:54:24.776Z,6.30
2022-10-19T21:56:53.446Z,5.93
2022-10-19T21:59:21.594Z,6.13
2022-10-19T22:01:49.355Z,5.53
2022-10-19T22:04:18.518Z,6.20
2022-10-19T22:06:46.815Z,5.80
2022-10-19T22:09:20.415Z,5.60
2022-10-19T22:11:48.479Z,5.90
2022-10-19T22:14:17.654Z,5.27
2022-10-19T22:16:45.815Z,5.40
2022-10-19T22:19:14.003Z,7.27
2022-10-19T22:21:41.597Z,6.37
2022-10-19T22:24:14.138Z,6.27
2022-10-19T22:26:46.357Z,8.27
2022-10-19T22:29:17.478Z,7.43
2022-10-19T22:31:45.530Z,6.50
2022-10-19T22:34:16.382Z,6.20
2022-10-19T22:36:44.706Z,7.53
2022-10-19T22:39:12.651Z,7.23
2022-10-19T22:41:40.213Z,6.30
2022-10-19T22:44:07.759Z,5.50
2022-10-19T22:46:35.344Z,5.20
2022-10-19T22:49:03.055Z,6.67
2022-10-19T22:51:30.565Z,6.43
2022-10-19T22:53:58.042Z,6.13
2022-10-19T22:56:25.550Z,6.07
2022-10-19T22:58:53.022Z,6.67
2022-10-19T23:01:20.586Z,6.90
2022-10-19T23:03:48.000Z,6.87
2022-10-19T23:06:16.136Z,6.70
2022-10-19T23:08:45.066Z,6.70
2022-10-19T23:11:13.149Z,6.83
2022-10-19T23:13:41.085Z,6.90
2022-10-19T23:16:09.357Z,7.03
2022-10-19T23:18:39.767Z,6.67
2022-10-19T23:21:11.502Z,6.30
2022-10-19T23:23:39.938Z,6.70
2022-10-19T23:26:20.298Z,7.13
2022-10-19T23:28:51.450Z,6.70
2022-10-19T23:31:28.441Z,6.80
2022-10-19T23:33:56.004Z,7.30
2022-10-19T23:36:27.357Z,7.37
2022-10-19T23:38:58.923Z,7.20
2022-10-19T23:41:26.921Z,6.83
2022-10-19T23:43:54.406Z,6.37
2022-10-19T23:46:21.966Z,6.17
2022-10-19T23:48:49.572Z,6.27
2022-10-19T23:51:20.273Z,6.90
2022-10-19T23:53:50.122Z,7.80
2022-10-19T23:56:23.178Z,7.80
2022-10-19T23:58:52.154Z,7.20
